»·PEaware :: AAL1097 KASE-KDEN

AAL1097 :: KASE-KDEN

FLIGHT INFORMATION

Flight Status: Arrived
Operator:
American Airlines
More flights by this operator :: More flights under this callsign
Pilot: Adam A. (5112)
Aircraft: BOEING 767-300
(B763)
More flights by this aircraft type
Origin: KASE Aspen-Pitkin Co/Sardy
United States
Destination: KDEN Denver Intl
United States
More flights between these airports :: More routes between these airports
Route: LINDZ8 DBL JNETT CREDE3
File this flight plan on PilotEdge
Remarks:
Altitude:
(Current/Filed)
26,000ft
Speed:
(Current/Filed)
450kts
Departed: 31-Jan-16 06:56 PM
Arrived: 31-Jan-16 07:36 PM
Distance/Time
Traveled:
108nm/0:39
Distance/Time
To Go:
Arrived

Flight Plot

Page will automatically refresh every two minutes.


Map Options




Map Legend


Flown Route
Filed Route
Departure Airport
Arrival Airport
Navaid (VOR, NDB)
Fix

Horizontal Profiles

Position Reports

Time Latitude Longitude Heading Altitude Ground
Speed
31-Jan-16 18:46 39.218687 -106.863751 248 7830ft 0kts
31-Jan-16 18:47 39.218620 -106.863970 249 7830ft 3kts
31-Jan-16 18:48 39.215442 -106.863758 162 7830ft 25kts
31-Jan-16 18:49 39.212639 -106.863578 326 7830ft 8kts
31-Jan-16 18:50 39.239315 -106.876481 316 8670ft 164kts
31-Jan-16 18:51 39.262362 -106.940549 283 9924ft 250kts
31-Jan-16 18:52 39.268369 -106.970737 278 10843ft 269kts
31-Jan-16 18:53 39.315389 -107.057270 308 13245ft 353kts
31-Jan-16 18:54 39.395928 -107.113157 352 16775ft 398kts
31-Jan-16 18:55 39.490216 -107.057283 48 19842ft 438kts
31-Jan-16 18:56 39.522868 -106.918965 95 22613ft 447kts
31-Jan-16 18:57 39.484726 -106.786259 134 25142ft 435kts
31-Jan-16 18:58 39.417837 -106.679899 121 26082ft 479kts
31-Jan-16 18:59 39.372647 -106.543144 116 26046ft 531kts
31-Jan-16 19:00 39.330287 -106.405279 114 26011ft 530kts
31-Jan-16 19:01 39.287094 -106.260446 114 26012ft 530kts
31-Jan-16 19:02 39.256647 -106.100139 93 26010ft 541kts
31-Jan-16 19:03 39.276042 -105.928919 80 26035ft 544kts
31-Jan-16 19:04 39.299375 -105.768285 80 26033ft 543kts
31-Jan-16 19:05 39.341411 -105.607137 60 26024ft 545kts
31-Jan-16 19:06 39.408503 -105.455193 54 25245ft 506kts
31-Jan-16 19:07 39.473799 -105.332420 55 20799ft 416kts
31-Jan-16 19:08 39.529676 -105.225955 55 16106ft 356kts
31-Jan-16 19:09 39.580134 -105.129389 56 14069ft 337kts
31-Jan-16 19:10 39.624482 -105.044364 56 13615ft 308kts
31-Jan-16 19:11 39.674516 -104.947952 56 13180ft 365kts
31-Jan-16 19:12 39.734374 -104.857077 26 12379ft 356kts
31-Jan-16 19:13 39.820576 -104.841170 359 11329ft 344kts
31-Jan-16 19:14 39.914264 -104.839401 359 10985ft 412kts
31-Jan-16 19:15 40.001070 -104.840037 358 8924ft 280kts
31-Jan-16 19:17 40.070650 -104.840234 359 9093ft 246kts
31-Jan-16 19:18 40.134737 -104.839723 359 9032ft 251kts
31-Jan-16 19:19 40.201141 -104.839166 359 9014ft 254kts
31-Jan-16 19:20 40.259895 -104.819190 62 9012ft 238kts
31-Jan-16 19:21 40.240972 -104.768806 159 9156ft 190kts
31-Jan-16 19:22 40.196176 -104.747313 166 8922ft 169kts
31-Jan-16 19:23 40.158183 -104.732309 167 8588ft 149kts
31-Jan-16 19:24 40.119738 -104.717751 167 8436ft 149kts
31-Jan-16 19:25 40.080903 -104.703173 167 8236ft 148kts
31-Jan-16 19:26 40.042238 -104.690192 173 8029ft 146kts
31-Jan-16 19:27 40.002524 -104.686412 178 6998ft 138kts
31-Jan-16 19:27 39.970393 -104.686065 180 6879ft 140kts
31-Jan-16 19:28 39.931699 -104.686404 179 6134ft 139kts
31-Jan-16 19:29 39.893353 -104.686859 178 5450ft 137kts
31-Jan-16 19:30 39.874387 -104.684887 180 5442ft 36kts
31-Jan-16 19:31 39.864713 -104.684938 183 5442ft 32kts
31-Jan-16 19:32 39.860337 -104.682174 81 5442ft 24kts
31-Jan-16 19:33 39.859692 -104.676839 176 5442ft 11kts
31-Jan-16 19:34 39.859213 -104.676831 179 5442ft 0kts
31-Jan-16 19:35 39.859213 -104.676831 179 5442ft 0kts
31-Jan-16 19:36 39.859213 -104.676831 179 5442ft 0kts

Navigation Log

Ident Type
Flight plan parsing failed, navigation log unavailable